Portada
METAR-TAF:

METAR-TAF

Aeropuertos :

Aeropuerto Internacional de Mehrabad

Teherán, Irán

latitud: 35-41N, longitud: 051-21E, altitud: 1204 m

Observación

El informe se hizo hace 22 minutos, a las 14:30 UTC
Viento 8 kt del oeste
Temperatura 13°C
Humedad 22%
Presión 1021 hPa
Visibilidad 10 km o más
Escasas nubes a una altura de 3000 ft
Escasas nubes a una altura de 3500 ft, Cumulus congestus.

METAR: OIII 241430Z 27008KT 9999 FEW030 FEW035TCU 13/M08 Q1021 A3016

Hora: 19:22 (14:52 UTC)

Pronóstico

El informe se hizo hace 3 horas y 22 minutos, a las 11:30 UTC
Pronóstico válido del 24 a las 12 UTC al 25 a las 18 UTC
Viento 6 kt del sur-suroeste
Visibilidad 10 km o más
Nubes dispersas a una altura de 3500 ft
Temporalmente
del 25 a las 09 UTC al 25 a las 15 UTC
Escasas nubes a una altura de 3500 ft, Cumulus congestus.
Nubes dispersas a una altura de 10000 ft

TAF: OIII 241130Z 2412/2518 20006KT 9999 SCT035 TEMPO 2509/2515 FEW035TCU SCT100

Observaciones y pronósticos meteorológicos de más de 4000 aeropuertos (mensajes METAR y TAF).

Los puntos amarillos y rojos representan las estaciones disponibles.

Ponga el ratón en el punto deseado para ver el nombre de la estación.

Haga clic para ver las observaciones y los pronósticos meteorológicos.

Para cambiar el mapa : haga clic en los botones verdes con una cruz de color negro para hacer un zoom, en el botón verde con un guión para alejar o en las flechas verdes para mapas adyacentes.


METAR-TAF: